Time,TemperatureF,DewpointF,PressureIn,WindDirection,WindDirectionDegrees,WindSpeedMPH,WindSpeedGustMPH,Humidity,HourlyPrecipIn,Conditions,Clouds,dailyrainin,SolarRadiationWatts/m^2,SoftwareType,DateUTC
2013-07-02 10:21:00,69.0,38.0,-100.00,NE,42,15.0,17.0,31,-99.99,,,-99.99,652.400024,,2013-07-02 16:21:00,
2013-07-02 10:33:00,71.0,39.0,-100.00,ENE,63,8.0,15.0,31,-99.99,,,-99.99,703.700012,,2013-07-02 16:33:00,
2013-07-02 10:43:00,71.0,40.0,-100.00,ENE,68,10.0,12.0,31,-99.99,,,-99.99,744.000000,,2013-07-02 16:43:00,
2013-07-02 10:52:00,72.0,40.0,-100.00,ENE,74,11.0,15.0,31,-99.99,,,-99.99,772.099976,,2013-07-02 16:52:00,
2013-07-02 11:02:00,73.0,40.0,-100.00,NE,53,10.0,14.0,30,-99.99,,,-99.99,803.000000,,2013-07-02 17:02:00,
2013-07-02 11:11:00,74.0,40.0,-100.00,ENE,76,9.0,11.0,28,-99.99,,,-99.99,829.000000,,2013-07-02 17:11:00,
2013-07-02 11:22:00,75.0,38.0,-100.00,ENE,71,9.0,12.0,26,-99.99,,,-99.99,850.000000,,2013-07-02 17:22:00,
2013-07-02 11:33:00,75.0,39.0,-100.00,ENE,64,9.0,11.0,26,-99.99,,,-99.99,869.000000,,2013-07-02 17:33:00,
2013-07-02 11:43:00,76.0,39.0,-100.00,ENE,69,9.0,12.0,26,-99.99,,,-99.99,899.000000,,2013-07-02 17:43:00,
2013-07-02 11:53:00,76.0,39.0,-100.00,ENE,69,9.0,12.0,26,-99.99,,,-99.99,899.000000,,2013-07-02 17:53:00,
2013-07-02 12:34:00,80.0,42.0,-100.00,East,93,4.0,9.0,25,-99.99,,,-99.99,977.000000,,2013-07-02 18:34:00,
2013-07-02 12:43:00,81.0,44.0,-100.00,ESE,104,4.0,8.0,26,-99.99,,,-99.99,980.000000,,2013-07-02 18:43:00,
2013-07-02 13:01:00,83.0,38.0,-100.00,SSE,150,0.0,6.0,20,-99.99,,,-99.99,942.000000,,2013-07-02 19:01:00,
2013-07-02 13:43:00,83.0,40.0,-100.00,SE,128,4.0,11.0,21,-99.99,,,-99.99,1026.000000,,2013-07-02 19:43:00,
2013-07-02 13:53:00,83.0,40.0,-100.00,SE,128,4.0,11.0,21,-99.99,,,-99.99,1026.000000,,2013-07-02 19:53:00,
2013-07-02 14:43:00,84.0,38.0,-100.00,SW,217,5.0,8.0,19,-99.99,,,-99.99,1010.000000,,2013-07-02 20:43:00,
2013-07-02 15:02:00,86.0,39.0,-100.00,SW,219,7.0,13.0,18,-99.99,,,-99.99,966.000000,,2013-07-02 21:02:00,
2013-07-02 15:43:00,86.0,32.0,-100.00,SW,227,4.0,11.0,14,-99.99,,,-99.99,928.000000,,2013-07-02 21:43:00,
2013-07-02 16:01:00,87.0,37.0,-100.00,SW,216,5.0,9.0,16,-99.99,,,-99.99,910.000000,,2013-07-02 22:01:00,
2013-07-02 16:22:00,87.0,33.0,-100.00,ENE,70,8.0,15.0,14,-99.99,,,-99.99,875.000000,,2013-07-02 22:22:00,
2013-07-02 16:33:00,87.0,34.0,-100.00,NNW,339,6.0,11.0,14,-99.99,,,-99.99,830.000000,,2013-07-02 22:33:00,
2013-07-02 16:43:00,86.0,33.0,-100.00,West,263,3.0,9.0,14,-99.99,,,-99.99,804.000000,,2013-07-02 22:43:00,
2013-07-02 16:53:00,87.0,36.0,-100.00,WSW,249,6.0,8.0,16,-99.99,,,-99.99,777.799988,,2013-07-02 22:53:00,
2013-07-02 17:01:00,87.0,36.0,-100.00,WSW,249,6.0,8.0,16,-99.99,,,-99.99,777.799988,,2013-07-02 23:01:00,
2013-07-02 17:11:00,88.0,38.0,-100.00,South,181,4.0,10.0,17,-99.99,,,-99.99,727.000000,,2013-07-02 23:11:00,
2013-07-02 17:22:00,86.0,35.0,-100.00,SW,223,5.0,11.0,15,-99.99,,,-99.99,706.700012,,2013-07-02 23:22:00,
2013-07-02 17:44:00,88.0,35.0,-100.00,SW,233,4.0,8.0,15,-99.99,,,-99.99,643.599976,,2013-07-02 23:44:00,
2013-07-02 17:52:00,88.0,35.0,-100.00,SW,233,4.0,8.0,15,-99.99,,,-99.99,643.599976,,2013-07-02 23:52:00,
2013-07-02 18:01:00,86.0,31.0,-100.00,West,269,6.0,9.0,13,-99.99,,,-99.99,582.200012,,2013-07-03 00:01:00,
2013-07-02 18:11:00,86.0,31.0,-100.00,West,269,6.0,9.0,13,-99.99,,,-99.99,582.200012,,2013-07-03 00:11:00,
2013-07-02 18:52:00,84.0,44.0,-100.00,WSW,240,8.0,13.0,24,-99.99,,,-99.99,443.500000,,2013-07-03 00:52:00,
2013-07-02 19:11:00,83.0,44.0,-100.00,SW,232,10.0,13.0,25,-99.99,,,-99.99,365.200012,,2013-07-03 01:11:00,
2013-07-02 19:42:00,81.0,45.0,-100.00,West,259,6.0,9.0,27,-99.99,,,-99.99,180.600006,,2013-07-03 01:42:00,
2013-07-02 19:53:00,81.0,45.0,-100.00,West,270,6.0,8.0,28,-99.99,,,-99.99,164.899994,,2013-07-03 01:53:00,
2013-07-02 20:12:00,80.0,45.0,-100.00,WNW,297,5.0,7.0,28,-99.99,,,-99.99,168.199997,,2013-07-03 02:12:00,
2013-07-02 20:23:00,79.0,44.0,-100.00,NW,315,6.0,7.0,28,-99.99,,,-99.99,134.600006,,2013-07-03 02:23:00,
2013-07-02 20:43:00,77.0,43.0,-100.00,WNW,298,3.0,6.0,29,-99.99,,,-99.99,44.119999,,2013-07-03 02:43:00,
2013-07-02 21:02:00,77.0,38.0,-100.00,NNW,334,3.0,5.0,23,-99.99,,,-99.99,30.580000,,2013-07-03 03:02:00,
2013-07-02 21:12:00,75.0,39.0,-100.00,North,6,0.0,5.0,27,-99.99,,,-99.99,15.940000,,2013-07-03 03:12:00,
2013-07-02 21:24:00,75.0,39.0,-100.00,NE,37,1.0,3.0,27,-99.99,,,-99.99,6.410000,,2013-07-03 03:24:00,
2013-07-02 21:43:00,75.0,39.0,-100.00,North,0,0.0,3.0,27,-99.99,,,-99.99,0.460000,,2013-07-03 03:43:00,
2013-07-02 21:53:00,74.0,38.0,-100.00,NNW,339,1.0,3.0,26,-99.99,,,-99.99,0.020000,,2013-07-03 03:53:00,
2013-07-02 22:11:00,73.0,38.0,-100.00,NE,42,1.0,4.0,28,-99.99,,,-99.99,0.000000,,2013-07-03 04:11:00,
2013-07-02 22:22:00,72.0,38.0,-100.00,NE,46,0.0,3.0,28,-99.99,,,-99.99,0.000000,,2013-07-03 04:22:00,
2013-07-02 22:33:00,72.0,38.0,-100.00,NE,46,0.0,3.0,28,-99.99,,,-99.99,0.000000,,2013-07-03 04:33:00,
2013-07-02 22:52:00,72.0,37.0,-100.00,ENE,58,4.0,5.0,27,-99.99,,,-99.99,0.000000,,2013-07-03 04:52:00,
2013-07-02 23:01:00,72.0,38.0,-100.00,NE,53,4.0,5.0,28,-99.99,,,-99.99,0.000000,,2013-07-03 05:01:00,
2013-07-02 23:11:00,72.0,38.0,-100.00,NE,53,4.0,5.0,28,-99.99,,,-99.99,0.000000,,2013-07-03 05:11:00,
2013-07-02 23:23:00,72.0,38.0,-100.00,NE,47,3.0,4.0,29,-99.99,,,-99.99,0.000000,,2013-07-03 05:23:00,
2013-07-02 23:43:00,72.0,37.0,-100.00,NE,48,4.0,5.0,28,-99.99,,,-99.99,0.010000,,2013-07-03 05:43:00,